Bartlesville, OK

3:03 AM CDT on September 01, 2014 (GMT -0500)
Coffeyville Municipal | Change Station
CLOSE
Current Station
Airport
Location: Coffeyville,
Elevation: 751 ft
Nearby Weather Stations

Elev 751 ft 37.09 °N, 95.57 °W | Updated 11 minutes ago

Scattered Clouds
Scattered Clouds
80 °F
Feels Like 83 °F
N
12
Wind Variable Wind from NNW

Today
High -- | Low -- °F
--% Chance of Precip.
Yesterday
High -- | Low -- °F
Precip. -- in
6:55 AM 7:52 PM
Waxing Crescent, 38% visible
Pressure 29.85 in
Visibility 10.0 miles
Clouds Scattered Clouds 3300 ft
Heat Index 83 °F
Dew Point 69 °F
Humidity 69%
Rainfall 0.00 in
Snow Depth Not available.
UV 0 out of 12
Pollen 9.60 out of 12
Air Quality Not available.
Flu Activity Not available.
METAR KCFV 010752Z AUTO 33010KT 10SM SCT033 27/21 A2988 RMK AO2 LTG DSNT ALQDS PRESRR SLP108 T02670206

More Conditions Fewer Conditions

Pressure 29.85 in
Visibility 10.0 miles
Clouds Scattered Clouds 3300 ft
Heat Index 83 °F
Dew Point 69 °F
Humidity 69%
Rainfall 0.00 in
Snow Depth Not available.
UV 0 out of 12
Pollen 9.60 out of 12
Air Quality Not available.
Flu Activity Not available.
METAR KCFV 010752Z AUTO 33010KT 10SM SCT033 27/21 A2988 RMK AO2 LTG DSNT ALQDS PRESRR SLP108 T02670206

More Conditions Fewer Conditions

10-Day Weather Forecast

Almanac

Astronomy

Sep. 01, 2014 Rise Set
Actual Time 6:55 AM CDT 7:52 PM CDT
Civil Twilight 6:28 AM CDT 8:18 PM CDT
Nautical Twilight 5:57 AM CDT 8:49 PM CDT
Astronomical Twilight 5:24 AM CDT 9:22 PM CDT
Moon 1:31 PM CDT No Moon Set
Length of Visible Light 13h 49m
Length of Day
12h 57m
Tomorrow will be 2m 14s shorter.
Waxing Crescent, 38% of the Moon is Illuminated
Today
Waxing Crescent
Sep 2
First Quarter
Sep 8
Full
Sep 15
Last Quarter
Sep 24
New

Today's Extremes

State Highs State Lows

Community

WunderPhotos

Upload Photos

1,749,175 photos uploaded!

Nearby

Snow Depth

Station Depth Elevation
No new snow has been reported.

Earthquake Activity

City Distance Mag. Time & Date
Jones, Oklahoma 105 miles 3.1 1:49 PM CDT
2014-08-31
Enid, Oklahoma 108 miles 3.4 11:57 AM CDT
2014-08-31
Enid, Oklahoma 110 miles 3.7 2:20 AM CDT
2014-08-31
Guthrie, Oklahoma 100 miles 3.2 10:39 AM CDT
2014-08-29
Minimum magnitude displayed is 2.5.

Coastal Water Temperatures

Place Temperature
No Stations Reporting

Nearby Weather Stations